sensor_id;sensor_type;location;lat;lon;timestamp;temperature;humidity
4293;DHT22;2160;51.172;6.808;2023-02-15T05:01:23;6.40;99.90
4293;DHT22;2160;51.172;6.808;2023-02-15T05:03:50;6.30;99.90
4293;DHT22;2160;51.172;6.808;2023-02-15T05:06:17;6.40;99.90
4293;DHT22;2160;51.172;6.808;2023-02-15T05:08:44;6.40;99.90
4293;DHT22;2160;51.172;6.808;2023-02-15T05:11:11;6.40;99.90
4293;DHT22;2160;51.172;6.808;2023-02-15T05:13:38;6.50;99.90
4293;DHT22;2160;51.172;6.808;2023-02-15T05:16:05;6.40;99.90
4293;DHT22;2160;51.172;6.808;2023-02-15T05:18:34;6.40;99.90
4293;DHT22;2160;51.172;6.808;2023-02-15T05:21:01;6.30;99.90
4293;DHT22;2160;51.172;6.808;2023-02-15T05:23:28;6.20;99.90
4293;DHT22;2160;51.172;6.808;2023-02-15T05:25:55;6.20;99.90
4293;DHT22;2160;51.172;6.808;2023-02-15T05:28:39;6.30;99.90
4293;DHT22;2160;51.172;6.808;2023-02-15T05:31:08;6.20;99.90
4293;DHT22;2160;51.172;6.808;2023-02-15T05:33:38;6.20;99.90
4293;DHT22;2160;51.172;6.808;2023-02-15T05:36:06;6.10;99.90
4293;DHT22;2160;51.172;6.808;2023-02-15T05:38:33;6.20;99.90
4293;DHT22;2160;51.172;6.808;2023-02-15T05:41:02;6.10;99.90
4293;DHT22;2160;51.172;6.808;2023-02-15T05:43:30;6.20;99.90
4293;DHT22;2160;51.172;6.808;2023-02-15T05:45:57;6.20;99.90
4293;DHT22;2160;51.172;6.808;2023-02-15T05:48:26;6.20;99.90
4293;DHT22;2160;51.172;6.808;2023-02-15T05:50:59;6.10;99.90
4293;DHT22;2160;51.172;6.808;2023-02-15T05:53:26;6.00;99.90
4293;DHT22;2160;51.172;6.808;2023-02-15T05:55:54;6.00;99.90
4293;DHT22;2160;51.172;6.808;2023-02-15T05:58:24;6.00;99.90
4293;DHT22;2160;51.172;6.808;2023-02-15T06:00:51;6.10;99.90
4293;DHT22;2160;51.172;6.808;2023-02-15T06:03:18;6.00;99.90
4293;DHT22;2160;51.172;6.808;2023-02-15T06:05:45;6.00;99.90
4293;DHT22;2160;51.172;6.808;2023-02-15T06:08:14;6.00;99.90
4293;DHT22;2160;51.172;6.808;2023-02-15T06:10:41;5.90;99.90
4293;DHT22;2160;51.172;6.808;2023-02-15T06:13:08;5.90;99.90
4293;DHT22;2160;51.172;6.808;2023-02-15T06:15:35;6.00;99.90
4293;DHT22;2160;51.172;6.808;2023-02-15T06:18:02;5.90;99.90
4293;DHT22;2160;51.172;6.808;2023-02-15T06:20:29;6.00;99.90
4293;DHT22;2160;51.172;6.808;2023-02-15T06:22:56;6.00;99.90
4293;DHT22;2160;51.172;6.808;2023-02-15T06:25:26;6.30;99.90
4293;DHT22;2160;51.172;6.808;2023-02-15T06:27:53;6.10;99.90
4293;DHT22;2160;51.172;6.808;2023-02-15T06:30:20;6.00;99.90
4293;DHT22;2160;51.172;6.808;2023-02-15T06:32:47;6.00;99.90
4293;DHT22;2160;51.172;6.808;2023-02-15T06:35:14;6.00;99.90
4293;DHT22;2160;51.172;6.808;2023-02-15T06:37:42;6.00;99.90
4293;DHT22;2160;51.172;6.808;2023-02-15T06:40:12;6.10;99.90
4293;DHT22;2160;51.172;6.808;2023-02-15T06:42:41;6.00;99.90
4293;DHT22;2160;51.172;6.808;2023-02-15T06:45:08;6.00;99.90
4293;DHT22;2160;51.172;6.808;2023-02-15T06:47:44;6.20;99.90
4293;DHT22;2160;51.172;6.808;2023-02-15T06:50:11;6.00;99.90
4293;DHT22;2160;51.172;6.808;2023-02-15T06:52:38;5.90;99.90
4293;DHT22;2160;51.172;6.808;2023-02-15T06:55:06;5.80;99.90
4293;DHT22;2160;51.172;6.808;2023-02-15T06:57:33;5.80;99.90
4293;DHT22;2160;51.172;6.808;2023-02-15T07:00:02;5.80;99.90
4293;DHT22;2160;51.172;6.808;2023-02-15T07:02:30;5.90;99.90
4293;DHT22;2160;51.172;6.808;2023-02-15T07:04:57;5.90;99.90
4293;DHT22;2160;51.172;6.808;2023-02-15T07:07:24;6.00;99.90
4293;DHT22;2160;51.172;6.808;2023-02-15T07:09:51;6.00;99.90
4293;DHT22;2160;51.172;6.808;2023-02-15T07:12:18;6.10;99.90
4293;DHT22;2160;51.172;6.808;2023-02-15T07:15:04;5.90;99.90
4293;DHT22;2160;51.172;6.808;2023-02-15T07:17:32;6.00;99.90
4293;DHT22;2160;51.172;6.808;2023-02-15T07:19:59;5.90;99.90
4293;DHT22;2160;51.172;6.808;2023-02-15T07:22:26;6.10;99.90
4293;DHT22;2160;51.172;6.808;2023-02-15T07:24:53;6.10;99.90
4293;DHT22;2160;51.172;6.808;2023-02-15T07:27:20;5.90;99.90
4293;DHT22;2160;51.172;6.808;2023-02-15T07:29:47;5.80;99.90
4293;DHT22;2160;51.172;6.808;2023-02-15T07:32:15;5.70;99.90
4293;DHT22;2160;51.172;6.808;2023-02-15T07:34:42;5.70;99.90
4293;DHT22;2160;51.172;6.808;2023-02-15T07:37:09;5.90;99.90
4293;DHT22;2160;51.172;6.808;2023-02-15T07:39:36;5.80;99.90
4293;DHT22;2160;51.172;6.808;2023-02-15T07:42:03;6.00;99.90
4293;DHT22;2160;51.172;6.808;2023-02-15T07:44:30;5.80;99.90
4293;DHT22;2160;51.172;6.808;2023-02-15T07:46:57;5.80;99.90
4293;DHT22;2160;51.172;6.808;2023-02-15T07:49:26;5.80;99.90
4293;DHT22;2160;51.172;6.808;2023-02-15T07:51:53;5.80;99.90
4293;DHT22;2160;51.172;6.808;2023-02-15T07:54:20;6.10;99.90
4293;DHT22;2160;51.172;6.808;2023-02-15T07:56:47;6.10;99.90
4293;DHT22;2160;51.172;6.808;2023-02-15T07:59:14;6.30;99.90
4293;DHT22;2160;51.172;6.808;2023-02-15T08:01:41;6.00;99.90
4293;DHT22;2160;51.172;6.808;2023-02-15T08:04:08;6.20;99.90
4293;DHT22;2160;51.172;6.808;2023-02-15T08:06:38;6.10;99.90
4293;DHT22;2160;51.172;6.808;2023-02-15T08:09:06;6.30;99.90
4293;DHT22;2160;51.172;6.808;2023-02-15T08:11:34;6.20;99.90
4293;DHT22;2160;51.172;6.808;2023-02-15T08:14:07;6.10;99.90
4293;DHT22;2160;51.172;6.808;2023-02-15T08:16:36;6.20;99.90
4293;DHT22;2160;51.172;6.808;2023-02-15T08:19:05;6.30;99.90
4293;DHT22;2160;51.172;6.808;2023-02-15T08:21:34;6.40;99.90
4293;DHT22;2160;51.172;6.808;2023-02-15T08:24:04;6.40;99.90
4293;DHT22;2160;51.172;6.808;2023-02-15T08:26:31;6.50;99.90
4293;DHT22;2160;51.172;6.808;2023-02-15T08:28:59;6.60;99.90
4293;DHT22;2160;51.172;6.808;2023-02-15T08:31:28;6.70;99.90
4293;DHT22;2160;51.172;6.808;2023-02-15T08:33:57;6.60;99.90
4293;DHT22;2160;51.172;6.808;2023-02-15T08:36:26;6.40;99.90
4293;DHT22;2160;51.172;6.808;2023-02-15T08:38:54;6.70;99.90
4293;DHT22;2160;51.172;6.808;2023-02-15T08:41:24;6.60;99.90
4293;DHT22;2160;51.172;6.808;2023-02-15T08:43:53;6.70;99.90
4293;DHT22;2160;51.172;6.808;2023-02-15T08:46:22;6.80;99.90
4293;DHT22;2160;51.172;6.808;2023-02-15T08:48:49;6.60;99.90
4293;DHT22;2160;51.172;6.808;2023-02-15T08:51:18;6.60;99.90
4293;DHT22;2160;51.172;6.808;2023-02-15T08:53:47;6.80;99.90
4293;DHT22;2160;51.172;6.808;2023-02-15T08:56:15;6.70;99.90
4293;DHT22;2160;51.172;6.808;2023-02-15T08:58:44;6.70;99.90
4293;DHT22;2160;51.172;6.808;2023-02-15T09:01:11;6.80;99.90
4293;DHT22;2160;51.172;6.808;2023-02-15T09:03:39;6.70;99.90
4293;DHT22;2160;51.172;6.808;2023-02-15T09:06:07;6.90;99.90
4293;DHT22;2160;51.172;6.808;2023-02-15T09:08:34;7.20;99.90
4293;DHT22;2160;51.172;6.808;2023-02-15T09:11:06;7.10;99.90
4293;DHT22;2160;51.172;6.808;2023-02-15T09:13:33;7.20;99.90
4293;DHT22;2160;51.172;6.808;2023-02-15T09:16:04;7.10;99.90
4293;DHT22;2160;51.172;6.808;2023-02-15T09:18:33;7.10;99.90
4293;DHT22;2160;51.172;6.808;2023-02-15T09:21:05;7.00;99.90
4293;DHT22;2160;51.172;6.808;2023-02-15T09:23:33;7.00;99.90
4293;DHT22;2160;51.172;6.808;2023-02-15T09:26:05;7.30;99.90
4293;DHT22;2160;51.172;6.808;2023-02-15T09:28:32;7.50;99.90
4293;DHT22;2160;51.172;6.808;2023-02-15T09:31:09;7.60;99.90
4293;DHT22;2160;51.172;6.808;2023-02-15T09:33:37;7.70;99.90
4293;DHT22;2160;51.172;6.808;2023-02-15T09:36:06;7.90;99.90
4293;DHT22;2160;51.172;6.808;2023-02-15T09:38:40;8.10;99.90
4293;DHT22;2160;51.172;6.808;2023-02-15T09:41:40;8.00;99.90
4293;DHT22;2160;51.172;6.808;2023-02-15T09:44:17;7.70;99.90
4293;DHT22;2160;51.172;6.808;2023-02-15T09:47:18;7.80;99.90
4293;DHT22;2160;51.172;6.808;2023-02-15T09:49:55;7.90;99.90
4293;DHT22;2160;51.172;6.808;2023-02-15T09:52:42;8.00;99.90
4293;DHT22;2160;51.172;6.808;2023-02-15T09:55:30;8.10;99.90
4293;DHT22;2160;51.172;6.808;2023-02-15T09:58:07;8.30;99.90
4293;DHT22;2160;51.172;6.808;2023-02-15T10:00:44;8.20;99.90
4293;DHT22;2160;51.172;6.808;2023-02-15T10:03:23;8.20;99.90
4293;DHT22;2160;51.172;6.808;2023-02-15T10:06:09;8.30;99.90
4293;DHT22;2160;51.172;6.808;2023-02-15T10:11:59;8.60;99.90
4293;DHT22;2160;51.172;6.808;2023-02-15T10:14:57;8.80;99.90
4293;DHT22;2160;51.172;6.808;2023-02-15T10:17:44;8.90;99.90
4293;DHT22;2160;51.172;6.808;2023-02-15T10:20:26;9.00;99.90
4293;DHT22;2160;51.172;6.808;2023-02-15T10:23:21;9.30;99.90
4293;DHT22;2160;51.172;6.808;2023-02-15T10:25:57;9.30;99.90
4293;DHT22;2160;51.172;6.808;2023-02-15T10:28:29;9.40;99.90
4293;DHT22;2160;51.172;6.808;2023-02-15T10:31:04;9.60;99.90
4293;DHT22;2160;51.172;6.808;2023-02-15T10:33:39;9.70;99.90
4293;DHT22;2160;51.172;6.808;2023-02-15T10:36:20;9.70;99.90
4293;DHT22;2160;51.172;6.808;2023-02-15T10:38:56;9.70;99.90
4293;DHT22;2160;51.172;6.808;2023-02-15T10:41:34;9.80;99.90
4293;DHT22;2160;51.172;6.808;2023-02-15T10:44:20;9.80;99.90
4293;DHT22;2160;51.172;6.808;2023-02-15T10:46:59;10.00;99.90
4293;DHT22;2160;51.172;6.808;2023-02-15T10:49:53;10.00;99.90
4293;DHT22;2160;51.172;6.808;2023-02-15T10:52:33;10.10;99.90
4293;DHT22;2160;51.172;6.808;2023-02-15T10:55:10;10.10;99.90
4293;DHT22;2160;51.172;6.808;2023-02-15T10:57:48;10.30;99.90
4293;DHT22;2160;51.172;6.808;2023-02-15T11:00:22;10.30;99.90
4293;DHT22;2160;51.172;6.808;2023-02-15T11:03:03;10.30;99.90
4293;DHT22;2160;51.172;6.808;2023-02-15T11:05:41;10.50;99.90
4293;DHT22;2160;51.172;6.808;2023-02-15T11:08:11;10.50;99.90
4293;DHT22;2160;51.172;6.808;2023-02-15T11:10:42;10.80;99.90
4293;DHT22;2160;51.172;6.808;2023-02-15T11:13:13;10.90;99.90
4293;DHT22;2160;51.172;6.808;2023-02-15T11:15:44;11.10;99.90
4293;DHT22;2160;51.172;6.808;2023-02-15T11:18:19;11.00;99.90
4293;DHT22;2160;51.172;6.808;2023-02-15T11:20:52;10.90;99.90
4293;DHT22;2160;51.172;6.808;2023-02-15T11:23:24;11.20;99.90
4293;DHT22;2160;51.172;6.808;2023-02-15T11:25:56;11.20;99.90
4293;DHT22;2160;51.172;6.808;2023-02-15T11:28:27;11.20;99.90
4293;DHT22;2160;51.172;6.808;2023-02-15T11:31:00;11.20;99.90
4293;DHT22;2160;51.172;6.808;2023-02-15T11:33:31;11.40;99.90
4293;DHT22;2160;51.172;6.808;2023-02-15T11:36:05;11.60;99.90
4293;DHT22;2160;51.172;6.808;2023-02-15T11:38:34;11.80;99.90
4293;DHT22;2160;51.172;6.808;2023-02-15T11:41:09;11.80;99.90
4293;DHT22;2160;51.172;6.808;2023-02-15T11:43:41;12.10;99.90
4293;DHT22;2160;51.172;6.808;2023-02-15T11:46:12;12.30;99.90
4293;DHT22;2160;51.172;6.808;2023-02-15T11:48:40;12.30;99.90
4293;DHT22;2160;51.172;6.808;2023-02-15T11:51:11;12.50;99.90
4293;DHT22;2160;51.172;6.808;2023-02-15T11:53:43;12.40;99.90
4293;DHT22;2160;51.172;6.808;2023-02-15T11:56:14;12.50;99.90
4293;DHT22;2160;51.172;6.808;2023-02-15T11:58:44;12.50;99.90
4293;DHT22;2160;51.172;6.808;2023-02-15T12:01:16;12.50;99.90
4293;DHT22;2160;51.172;6.808;2023-02-15T12:03:46;12.50;99.90
4293;DHT22;2160;51.172;6.808;2023-02-15T12:06:22;12.40;99.90
4293;DHT22;2160;51.172;6.808;2023-02-15T12:08:59;12.40;99.90
4293;DHT22;2160;51.172;6.808;2023-02-15T12:11:33;12.50;99.90
4293;DHT22;2160;51.172;6.808;2023-02-15T12:14:02;12.30;99.90
4293;DHT22;2160;51.172;6.808;2023-02-15T12:16:39;12.60;99.90
4293;DHT22;2160;51.172;6.808;2023-02-15T12:19:21;12.70;99.90
4293;DHT22;2160;51.172;6.808;2023-02-15T12:21:51;12.80;99.90
4293;DHT22;2160;51.172;6.808;2023-02-15T12:24:23;12.70;99.90
4293;DHT22;2160;51.172;6.808;2023-02-15T12:27:03;12.70;99.90
4293;DHT22;2160;51.172;6.808;2023-02-15T12:29:34;12.90;99.90
4293;DHT22;2160;51.172;6.808;2023-02-15T12:32:03;12.90;99.90
4293;DHT22;2160;51.172;6.808;2023-02-15T12:34:32;13.10;99.90
4293;DHT22;2160;51.172;6.808;2023-02-15T12:37:10;13.10;99.90
4293;DHT22;2160;51.172;6.808;2023-02-15T12:39:51;13.20;99.90
4293;DHT22;2160;51.172;6.808;2023-02-15T12:42:18;13.10;99.90
4293;DHT22;2160;51.172;6.808;2023-02-15T12:44:58;13.10;99.90
4293;DHT22;2160;51.172;6.808;2023-02-15T12:47:26;13.30;99.90
4293;DHT22;2160;51.172;6.808;2023-02-15T12:50:12;13.30;99.90
4293;DHT22;2160;51.172;6.808;2023-02-15T12:52:45;13.40;99.90
4293;DHT22;2160;51.172;6.808;2023-02-15T12:55:23;13.50;99.90
4293;DHT22;2160;51.172;6.808;2023-02-15T12:58:06;13.90;99.90
4293;DHT22;2160;51.172;6.808;2023-02-15T13:00:34;14.10;99.90
4293;DHT22;2160;51.172;6.808;2023-02-15T13:03:01;14.20;99.90
4293;DHT22;2160;51.172;6.808;2023-02-15T13:05:33;14.00;99.90
4293;DHT22;2160;51.172;6.808;2023-02-15T13:08:02;14.00;99.90
4293;DHT22;2160;51.172;6.808;2023-02-15T13:10:36;14.00;99.90
4293;DHT22;2160;51.172;6.808;2023-02-15T13:13:09;14.00;99.90
4293;DHT22;2160;51.172;6.808;2023-02-15T13:15:38;14.00;99.90
4293;DHT22;2160;51.172;6.808;2023-02-15T13:18:12;14.00;99.90
4293;DHT22;2160;51.172;6.808;2023-02-15T13:20:42;14.20;99.90
4293;DHT22;2160;51.172;6.808;2023-02-15T13:23:21;14.20;99.90
4293;DHT22;2160;51.172;6.808;2023-02-15T13:25:52;14.20;99.90
4293;DHT22;2160;51.172;6.808;2023-02-15T13:28:23;14.30;99.90
4293;DHT22;2160;51.172;6.808;2023-02-15T13:30:51;14.40;99.90
4293;DHT22;2160;51.172;6.808;2023-02-15T13:33:25;14.40;99.90
4293;DHT22;2160;51.172;6.808;2023-02-15T13:36:02;14.60;99.90
4293;DHT22;2160;51.172;6.808;2023-02-15T13:38:45;14.70;99.90
4293;DHT22;2160;51.172;6.808;2023-02-15T13:41:17;14.60;98.80
4293;DHT22;2160;51.172;6.808;2023-02-15T13:43:52;14.50;99.60
4293;DHT22;2160;51.172;6.808;2023-02-15T13:46:33;14.60;99.80
4293;DHT22;2160;51.172;6.808;2023-02-15T13:49:14;14.70;98.90
4293;DHT22;2160;51.172;6.808;2023-02-15T13:51:49;14.80;98.50
4293;DHT22;2160;51.172;6.808;2023-02-15T13:54:32;14.80;97.60
4293;DHT22;2160;51.172;6.808;2023-02-15T13:57:16;15.20;98.90
4293;DHT22;2160;51.172;6.808;2023-02-15T14:00:00;15.30;97.60
4293;DHT22;2160;51.172;6.808;2023-02-15T14:05:47;15.30;97.50
4293;DHT22;2160;51.172;6.808;2023-02-15T14:08:23;15.40;97.40
4293;DHT22;2160;51.172;6.808;2023-02-15T14:10:59;15.30;98.40
4293;DHT22;2160;51.172;6.808;2023-02-15T14:13:54;15.50;97.50
4293;DHT22;2160;51.172;6.808;2023-02-15T14:16:33;15.60;97.10
4293;DHT22;2160;51.172;6.808;2023-02-15T14:19:11;15.60;97.60
4293;DHT22;2160;51.172;6.808;2023-02-15T14:21:47;15.40;96.80
4293;DHT22;2160;51.172;6.808;2023-02-15T14:24:24;15.30;96.70
4293;DHT22;2160;51.172;6.808;2023-02-15T14:27:03;15.30;96.90
4293;DHT22;2160;51.172;6.808;2023-02-15T14:29:45;15.60;97.80
4293;DHT22;2160;51.172;6.808;2023-02-15T14:32:18;15.80;97.50
4293;DHT22;2160;51.172;6.808;2023-02-15T14:34:50;15.80;96.80
4293;DHT22;2160;51.172;6.808;2023-02-15T14:37:27;15.60;95.90
4293;DHT22;2160;51.172;6.808;2023-02-15T14:39:59;15.60;96.60
4293;DHT22;2160;51.172;6.808;2023-02-15T14:42:51;15.90;96.10
4293;DHT22;2160;51.172;6.808;2023-02-15T14:45:28;15.90;96.00
4293;DHT22;2160;51.172;6.808;2023-02-15T14:48:03;15.80;95.80
4293;DHT22;2160;51.172;6.808;2023-02-15T14:50:44;15.60;96.10
4293;DHT22;2160;51.172;6.808;2023-02-15T14:53:16;15.50;96.10
4293;DHT22;2160;51.172;6.808;2023-02-15T14:55:43;15.40;96.10
4293;DHT22;2160;51.172;6.808;2023-02-15T14:58:12;15.50;97.70
4293;DHT22;2160;51.172;6.808;2023-02-15T15:00:41;15.50;96.80
4293;DHT22;2160;51.172;6.808;2023-02-15T15:03:20;15.50;96.80
4293;DHT22;2160;51.172;6.808;2023-02-15T15:05:50;15.50;98.10
4293;DHT22;2160;51.172;6.808;2023-02-15T15:08:33;15.50;98.00
4293;DHT22;2160;51.172;6.808;2023-02-15T15:14:01;15.50;97.20
4293;DHT22;2160;51.172;6.808;2023-02-15T15:16:47;15.30;97.40
4293;DHT22;2160;51.172;6.808;2023-02-15T15:22:33;15.30;97.10
4293;DHT22;2160;51.172;6.808;2023-02-15T15:25:01;15.10;98.30
4293;DHT22;2160;51.172;6.808;2023-02-15T15:27:48;15.20;97.20
4293;DHT22;2160;51.172;6.808;2023-02-15T15:36:53;15.10;98.30
4293;DHT22;2160;51.172;6.808;2023-02-15T15:39:52;15.20;98.40
4293;DHT22;2160;51.172;6.808;2023-02-15T15:42:31;15.10;98.90
4293;DHT22;2160;51.172;6.808;2023-02-15T15:45:29;15.10;98.40
4293;DHT22;2160;51.172;6.808;2023-02-15T15:48:15;15.20;99.60
4293;DHT22;2160;51.172;6.808;2023-02-15T15:50:45;15.20;98.90
4293;DHT22;2160;51.172;6.808;2023-02-15T15:53:19;15.30;99.70
4293;DHT22;2160;51.172;6.808;2023-02-15T15:55:48;15.30;98.60
4293;DHT22;2160;51.172;6.808;2023-02-15T15:58:18;15.20;99.10
4293;DHT22;2160;51.172;6.808;2023-02-15T16:00:47;15.10;99.20
4293;DHT22;2160;51.172;6.808;2023-02-15T16:03:20;15.10;99.90
4293;DHT22;2160;51.172;6.808;2023-02-15T16:05:51;15.20;99.90
4293;DHT22;2160;51.172;6.808;2023-02-15T16:08:29;15.10;99.90
4293;DHT22;2160;51.172;6.808;2023-02-15T16:10:57;15.20;99.90
4293;DHT22;2160;51.172;6.808;2023-02-15T16:13:25;15.20;99.90
4293;DHT22;2160;51.172;6.808;2023-02-15T16:15:54;15.20;99.90
4293;DHT22;2160;51.172;6.808;2023-02-15T16:18:24;15.30;99.90
4293;DHT22;2160;51.172;6.808;2023-02-15T16:20:55;15.30;99.90
4293;DHT22;2160;51.172;6.808;2023-02-15T16:23:54;15.00;99.90
4293;DHT22;2160;51.172;6.808;2023-02-15T16:29:27;15.00;99.90
4293;DHT22;2160;51.172;6.808;2023-02-15T16:31:59;14.70;99.90
4293;DHT22;2160;51.172;6.808;2023-02-15T16:34:27;14.40;99.90
4293;DHT22;2160;51.172;6.808;2023-02-15T16:37:15;14.40;99.90
4293;DHT22;2160;51.172;6.808;2023-02-15T16:39:45;14.10;99.90
4293;DHT22;2160;51.172;6.808;2023-02-15T16:42:15;13.90;99.90
4293;DHT22;2160;51.172;6.808;2023-02-15T16:44:43;13.70;99.90
4293;DHT22;2160;51.172;6.808;2023-02-15T16:47:15;13.50;99.90
4293;DHT22;2160;51.172;6.808;2023-02-15T16:49:46;13.50;99.90
4293;DHT22;2160;51.172;6.808;2023-02-15T16:52:19;13.70;99.90
4293;DHT22;2160;51.172;6.808;2023-02-15T16:54:52;13.80;99.90
4293;DHT22;2160;51.172;6.808;2023-02-15T16:57:23;13.80;99.90
4293;DHT22;2160;51.172;6.808;2023-02-15T16:59:55;13.70;99.90
4293;DHT22;2160;51.172;6.808;2023-02-15T17:02:37;13.70;99.90
4293;DHT22;2160;51.172;6.808;2023-02-15T17:05:15;13.90;99.90
4293;DHT22;2160;51.172;6.808;2023-02-15T17:11:14;13.60;99.90
4293;DHT22;2160;51.172;6.808;2023-02-15T17:14:10;13.40;99.90
4293;DHT22;2160;51.172;6.808;2023-02-15T17:16:42;13.50;99.90
4293;DHT22;2160;51.172;6.808;2023-02-15T17:19:15;13.70;99.90
4293;DHT22;2160;51.172;6.808;2023-02-15T17:21:48;13.70;99.90
4293;DHT22;2160;51.172;6.808;2023-02-15T17:24:18;13.80;99.90
4293;DHT22;2160;51.172;6.808;2023-02-15T17:26:53;13.90;99.90
4293;DHT22;2160;51.172;6.808;2023-02-15T17:29:33;13.90;99.90
4293;DHT22;2160;51.172;6.808;2023-02-15T17:32:02;13.80;99.90
4293;DHT22;2160;51.172;6.808;2023-02-15T17:34:45;13.80;99.90
4293;DHT22;2160;51.172;6.808;2023-02-15T17:37:23;13.70;99.90
4293;DHT22;2160;51.172;6.808;2023-02-15T17:39:51;13.70;99.90
4293;DHT22;2160;51.172;6.808;2023-02-15T17:42:20;13.70;99.90
4293;DHT22;2160;51.172;6.808;2023-02-15T17:44:48;13.60;99.90
4293;DHT22;2160;51.172;6.808;2023-02-15T17:47:16;13.70;99.90
4293;DHT22;2160;51.172;6.808;2023-02-15T17:49:44;13.60;99.90
4293;DHT22;2160;51.172;6.808;2023-02-15T17:52:12;13.50;99.90
4293;DHT22;2160;51.172;6.808;2023-02-15T17:54:39;13.50;99.90
4293;DHT22;2160;51.172;6.808;2023-02-15T17:57:25;13.50;99.90
4293;DHT22;2160;51.172;6.808;2023-02-15T17:59:53;13.40;99.90
4293;DHT22;2160;51.172;6.808;2023-02-15T18:02:41;13.20;99.90
4293;DHT22;2160;51.172;6.808;2023-02-15T18:05:27;13.00;99.90
4293;DHT22;2160;51.172;6.808;2023-02-15T18:08:13;13.00;99.90
4293;DHT22;2160;51.172;6.808;2023-02-15T18:10:59;12.80;99.90
4293;DHT22;2160;51.172;6.808;2023-02-15T18:13:45;13.00;99.90
4293;DHT22;2160;51.172;6.808;2023-02-15T18:16:14;13.00;99.90
4293;DHT22;2160;51.172;6.808;2023-02-15T18:18:42;13.10;99.90
4293;DHT22;2160;51.172;6.808;2023-02-15T18:21:10;13.10;99.90
4293;DHT22;2160;51.172;6.808;2023-02-15T18:23:37;12.90;99.90
4293;DHT22;2160;51.172;6.808;2023-02-15T18:26:05;12.90;99.90
4293;DHT22;2160;51.172;6.808;2023-02-15T18:28:32;12.90;99.90
4293;DHT22;2160;51.172;6.808;2023-02-15T18:31:01;12.80;99.90
4293;DHT22;2160;51.172;6.808;2023-02-15T18:33:33;12.70;99.90
4293;DHT22;2160;51.172;6.808;2023-02-15T18:36:02;12.70;99.90
4293;DHT22;2160;51.172;6.808;2023-02-15T18:38:30;12.60;99.90
4293;DHT22;2160;51.172;6.808;2023-02-15T18:40:57;12.50;99.90
4293;DHT22;2160;51.172;6.808;2023-02-15T18:43:24;12.50;99.90
4293;DHT22;2160;51.172;6.808;2023-02-15T18:45:51;12.30;99.90
4293;DHT22;2160;51.172;6.808;2023-02-15T18:48:20;12.40;99.90
4293;DHT22;2160;51.172;6.808;2023-02-15T18:50:47;12.20;99.90
4293;DHT22;2160;51.172;6.808;2023-02-15T18:53:18;12.00;99.90
4293;DHT22;2160;51.172;6.808;2023-02-15T18:55:46;11.90;99.90
4293;DHT22;2160;51.172;6.808;2023-02-15T18:58:16;11.80;99.90
4293;DHT22;2160;51.172;6.808;2023-02-15T19:00:43;11.70;99.90
4293;DHT22;2160;51.172;6.808;2023-02-15T19:03:15;11.60;99.90
4293;DHT22;2160;51.172;6.808;2023-02-15T19:05:45;11.80;99.90
4293;DHT22;2160;51.172;6.808;2023-02-15T19:08:16;12.00;99.90
4293;DHT22;2160;51.172;6.808;2023-02-15T19:10:50;11.90;99.90
4293;DHT22;2160;51.172;6.808;2023-02-15T19:13:23;11.90;99.90
4293;DHT22;2160;51.172;6.808;2023-02-15T19:16:03;11.80;99.90
4293;DHT22;2160;51.172;6.808;2023-02-15T19:26:01;11.70;99.90
4293;DHT22;2160;51.172;6.808;2023-02-15T19:28:32;11.50;99.90
4293;DHT22;2160;51.172;6.808;2023-02-15T19:31:03;11.50;99.90
4293;DHT22;2160;51.172;6.808;2023-02-15T19:33:35;11.40;99.90
4293;DHT22;2160;51.172;6.808;2023-02-15T19:36:03;11.40;99.90
4293;DHT22;2160;51.172;6.808;2023-02-15T19:38:33;11.30;99.90
4293;DHT22;2160;51.172;6.808;2023-02-15T19:41:04;11.30;99.90
4293;DHT22;2160;51.172;6.808;2023-02-15T19:43:33;11.20;99.90
4293;DHT22;2160;51.172;6.808;2023-02-15T19:46:00;11.20;99.90
4293;DHT22;2160;51.172;6.808;2023-02-15T19:48:27;11.20;99.90
4293;DHT22;2160;51.172;6.808;2023-02-15T19:50:54;11.40;99.90
4293;DHT22;2160;51.172;6.808;2023-02-15T19:53:23;11.30;99.90
4293;DHT22;2160;51.172;6.808;2023-02-15T19:55:52;11.20;99.90
4293;DHT22;2160;51.172;6.808;2023-02-15T19:58:19;11.10;99.90
4293;DHT22;2160;51.172;6.808;2023-02-15T20:00:48;11.10;99.90
4293;DHT22;2160;51.172;6.808;2023-02-15T20:03:16;11.10;99.90
4293;DHT22;2160;51.172;6.808;2023-02-15T20:05:43;11.10;99.90
4293;DHT22;2160;51.172;6.808;2023-02-15T20:08:15;11.20;99.90
4293;DHT22;2160;51.172;6.808;2023-02-15T20:10:43;11.10;99.90
4293;DHT22;2160;51.172;6.808;2023-02-15T20:13:14;11.00;99.90
4293;DHT22;2160;51.172;6.808;2023-02-15T20:15:42;10.90;99.90
4293;DHT22;2160;51.172;6.808;2023-02-15T20:18:09;10.90;99.90
4293;DHT22;2160;51.172;6.808;2023-02-15T20:20:40;11.00;99.90
4293;DHT22;2160;51.172;6.808;2023-02-15T20:23:16;11.00;99.90
4293;DHT22;2160;51.172;6.808;2023-02-15T20:25:44;11.10;99.90
4293;DHT22;2160;51.172;6.808;2023-02-15T20:28:15;11.10;99.90
4293;DHT22;2160;51.172;6.808;2023-02-15T20:30:43;11.30;99.90
4293;DHT22;2160;51.172;6.808;2023-02-15T20:33:10;11.00;99.90
4293;DHT22;2160;51.172;6.808;2023-02-15T20:35:38;11.00;99.90
4293;DHT22;2160;51.172;6.808;2023-02-15T20:38:06;11.20;99.90
4293;DHT22;2160;51.172;6.808;2023-02-15T20:40:37;11.00;99.90
4293;DHT22;2160;51.172;6.808;2023-02-15T20:43:25;11.00;99.90
4293;DHT22;2160;51.172;6.808;2023-02-15T20:45:52;10.90;99.90
4293;DHT22;2160;51.172;6.808;2023-02-15T20:48:19;10.90;99.90
4293;DHT22;2160;51.172;6.808;2023-02-15T20:50:46;10.90;99.90
4293;DHT22;2160;51.172;6.808;2023-02-15T20:53:13;11.00;99.90
4293;DHT22;2160;51.172;6.808;2023-02-15T20:55:41;11.10;99.90
4293;DHT22;2160;51.172;6.808;2023-02-15T20:58:19;11.10;99.90
4293;DHT22;2160;51.172;6.808;2023-02-15T21:00:47;11.00;99.90
4293;DHT22;2160;51.172;6.808;2023-02-15T21:03:16;10.90;99.90
4293;DHT22;2160;51.172;6.808;2023-02-15T21:05:44;11.00;99.90
4293;DHT22;2160;51.172;6.808;2023-02-15T21:08:15;10.90;99.90
4293;DHT22;2160;51.172;6.808;2023-02-15T21:10:43;10.60;99.90
4293;DHT22;2160;51.172;6.808;2023-02-15T21:13:18;10.30;99.90
4293;DHT22;2160;51.172;6.808;2023-02-15T21:15:48;10.40;99.90
4293;DHT22;2160;51.172;6.808;2023-02-15T21:18:18;10.40;99.90
4293;DHT22;2160;51.172;6.808;2023-02-15T21:20:47;10.30;99.90
4293;DHT22;2160;51.172;6.808;2023-02-15T21:23:17;10.40;99.90
4293;DHT22;2160;51.172;6.808;2023-02-15T21:25:45;10.40;99.90
4293;DHT22;2160;51.172;6.808;2023-02-15T21:28:17;10.50;99.90
4293;DHT22;2160;51.172;6.808;2023-02-15T21:30:45;10.60;99.90
4293;DHT22;2160;51.172;6.808;2023-02-15T21:33:13;10.50;99.90
4293;DHT22;2160;51.172;6.808;2023-02-15T21:35:41;10.60;99.90
4293;DHT22;2160;51.172;6.808;2023-02-15T21:38:12;10.60;99.90
4293;DHT22;2160;51.172;6.808;2023-02-15T21:40:41;10.40;99.90
4293;DHT22;2160;51.172;6.808;2023-02-15T21:43:13;10.50;99.90
4293;DHT22;2160;51.172;6.808;2023-02-15T21:45:57;10.60;99.90
4293;DHT22;2160;51.172;6.808;2023-02-15T21:48:44;10.40;99.90
4293;DHT22;2160;51.172;6.808;2023-02-15T21:51:11;10.20;99.90
4293;DHT22;2160;51.172;6.808;2023-02-15T21:53:55;10.10;99.90
4293;DHT22;2160;51.172;6.808;2023-02-15T21:56:23;10.10;99.90
4293;DHT22;2160;51.172;6.808;2023-02-15T21:58:50;10.10;99.90
4293;DHT22;2160;51.172;6.808;2023-02-15T22:01:21;10.10;99.90
4293;DHT22;2160;51.172;6.808;2023-02-15T22:03:51;10.20;99.90
4293;DHT22;2160;51.172;6.808;2023-02-15T22:06:18;10.20;99.90
4293;DHT22;2160;51.172;6.808;2023-02-15T22:08:46;10.20;99.90
4293;DHT22;2160;51.172;6.808;2023-02-15T22:11:15;10.10;99.90
4293;DHT22;2160;51.172;6.808;2023-02-15T22:13:43;10.00;99.90